Time,TemperatureF,DewpointF,PressureIn,WindDirection,WindDirectionDegrees,WindSpeedMPH,WindSpeedGustMPH,Humidity,HourlyPrecipIn,Conditions,Clouds,dailyrainin,SoftwareType,DateUTC
2013-02-16 00:00:00,39.3,37.7,30.14,East,101,0.0,0.0,94,0.00,,CLR,0.01,VWS V14.01,2013-02-16 05:00:00,
2013-02-16 00:01:00,39.2,37.6,30.13,East,101,0.0,0.0,94,0.00,,CLR,0.01,VWS V14.01,2013-02-16 05:01:00,
2013-02-16 00:06:00,39.1,37.5,30.13,East,101,0.0,0.0,94,0.00,,CLR,0.00,VWS V14.01,2013-02-16 05:06:00,
2013-02-16 00:11:00,38.9,37.3,30.13,East,101,0.0,0.0,94,0.00,,CLR,0.00,VWS V14.01,2013-02-16 05:11:00,
2013-02-16 00:16:00,38.9,37.3,30.13,East,101,0.0,0.0,94,0.00,,CLR,0.00,VWS V14.01,2013-02-16 05:16:00,
2013-02-16 00:22:00,38.9,37.3,30.13,East,101,0.0,0.0,94,0.00,,CLR,0.00,VWS V14.01,2013-02-16 05:22:00,
2013-02-16 00:23:00,38.9,37.3,30.13,East,101,0.0,0.0,94,0.00,,CLR,0.00,VWS V14.01,2013-02-16 05:23:00,
2013-02-16 00:28:00,38.8,37.2,30.13,East,101,0.0,0.0,94,0.00,,CLR,0.00,VWS V14.01,2013-02-16 05:28:00,
2013-02-16 00:33:00,38.6,37.0,30.12,East,101,0.0,0.0,94,0.00,,CLR,0.00,VWS V14.01,2013-02-16 05:33:00,
2013-02-16 00:38:00,38.6,37.0,30.12,East,101,0.0,0.0,94,0.00,,CLR,0.00,VWS V14.01,2013-02-16 05:38:00,
2013-02-16 00:44:00,38.6,37.0,30.12,East,101,0.0,0.0,94,0.00,,CLR,0.00,VWS V14.01,2013-02-16 05:44:00,
2013-02-16 00:49:00,38.5,37.2,30.12,East,101,0.0,0.0,95,0.00,,CLR,0.00,VWS V14.01,2013-02-16 05:49:00,
2013-02-16 00:54:00,38.5,37.2,30.12,East,101,0.0,0.0,95,0.00,,CLR,0.00,VWS V14.01,2013-02-16 05:54:00,
2013-02-16 00:59:00,38.6,37.3,30.12,East,101,0.0,0.0,95,0.00,,CLR,0.00,VWS V14.01,2013-02-16 05:59:00,
2013-02-16 01:04:00,38.8,37.5,30.12,East,101,0.0,0.0,95,0.00,,FEW250,0.00,VWS V14.01,2013-02-16 06:04:00,
2013-02-16 01:09:00,38.8,37.5,30.12,East,101,0.0,0.0,95,0.00,,FEW250,0.00,VWS V14.01,2013-02-16 06:09:00,
2013-02-16 01:14:00,38.6,37.3,30.12,East,101,0.0,0.0,95,0.00,,FEW250,0.00,VWS V14.01,2013-02-16 06:14:00,
2013-02-16 01:19:00,38.6,37.3,30.12,East,101,0.0,0.0,95,0.00,,FEW250,0.00,VWS V14.01,2013-02-16 06:19:00,
2013-02-16 01:24:00,38.6,37.3,30.12,East,101,0.0,0.0,95,0.00,,FEW250,0.00,VWS V14.01,2013-02-16 06:24:00,
2013-02-16 01:29:00,38.6,37.3,30.12,East,101,0.0,0.0,95,0.00,,FEW250,0.00,VWS V14.01,2013-02-16 06:29:00,
2013-02-16 01:34:00,38.6,37.3,30.11,East,101,0.0,0.0,95,0.00,,FEW250,0.00,VWS V14.01,2013-02-16 06:34:00,
2013-02-16 01:40:00,38.6,37.3,30.11,East,101,0.0,0.0,95,0.00,,FEW250,0.00,VWS V14.01,2013-02-16 06:40:00,
2013-02-16 01:45:00,38.8,37.5,30.11,East,101,0.0,0.0,95,0.00,,FEW250,0.00,VWS V14.01,2013-02-16 06:45:00,
2013-02-16 01:50:00,39.2,38.2,30.11,East,101,0.0,0.0,96,0.00,,FEW250,0.00,VWS V14.01,2013-02-16 06:50:00,
2013-02-16 01:55:00,40.1,39.0,30.11,East,101,0.0,0.0,96,0.00,,FEW250,0.00,VWS V14.01,2013-02-16 06:55:00,
2013-02-16 02:00:00,41.2,40.4,30.11,East,101,0.0,0.0,97,0.00,,FEW250,0.00,VWS V14.01,2013-02-16 07:00:00,
2013-02-16 02:05:00,41.8,41.0,30.11,East,101,0.0,0.0,97,0.00,,FEW250,0.00,VWS V14.01,2013-02-16 07:05:00,
2013-02-16 02:10:00,42.1,41.3,30.11,East,101,0.0,0.0,97,0.00,,FEW250,0.00,VWS V14.01,2013-02-16 07:10:00,
2013-02-16 02:15:00,42.3,41.2,30.11,East,101,0.0,0.0,96,0.00,,FEW250,0.00,VWS V14.01,2013-02-16 07:15:00,
2013-02-16 02:20:00,42.5,41.4,30.11,East,101,0.0,0.0,96,0.00,,FEW250,0.00,VWS V14.01,2013-02-16 07:20:00,
2013-02-16 02:25:00,42.6,41.8,30.11,East,101,0.0,0.0,97,0.00,,FEW250,0.00,VWS V14.01,2013-02-16 07:25:00,
2013-02-16 02:31:00,42.8,42.0,30.11,East,101,0.0,0.0,97,0.00,,FEW250,0.00,VWS V14.01,2013-02-16 07:31:00,
2013-02-16 02:36:00,42.9,41.8,30.11,East,101,0.0,0.0,96,0.00,,FEW250,0.00,VWS V14.01,2013-02-16 07:36:00,
2013-02-16 02:41:00,42.9,41.8,30.11,East,101,0.0,0.0,96,0.00,,FEW250,0.00,VWS V14.01,2013-02-16 07:41:00,
2013-02-16 02:46:00,42.9,41.8,30.11,East,101,0.0,0.0,96,0.00,,FEW250,0.00,VWS V14.01,2013-02-16 07:46:00,
2013-02-16 02:51:00,42.6,41.5,30.09,East,101,0.0,0.0,96,0.00,,FEW250,0.00,VWS V14.01,2013-02-16 07:51:00,
2013-02-16 02:56:00,42.3,41.2,30.09,East,101,0.0,0.0,96,0.00,,FEW250,0.00,VWS V14.01,2013-02-16 07:56:00,
2013-02-16 03:01:00,41.9,40.8,30.09,East,101,0.0,0.0,96,0.00,,FEW250,0.00,VWS V14.01,2013-02-16 08:01:00,
2013-02-16 03:06:00,41.6,40.5,30.09,East,101,0.0,0.0,96,0.00,,FEW250,0.00,VWS V14.01,2013-02-16 08:06:00,
2013-02-16 03:11:00,41.3,40.2,30.09,East,101,0.0,0.0,96,0.00,,FEW250,0.00,VWS V14.01,2013-02-16 08:11:00,
2013-02-16 03:16:00,41.2,40.2,30.09,East,101,0.0,0.0,96,0.00,,FEW250,0.00,VWS V14.01,2013-02-16 08:16:00,
2013-02-16 03:21:00,40.9,39.8,30.08,East,101,0.0,0.0,96,0.00,,FEW250,0.00,VWS V14.01,2013-02-16 08:21:00,
2013-02-16 03:26:00,40.6,39.5,30.08,East,101,0.0,0.0,96,0.00,,FEW250,0.00,VWS V14.01,2013-02-16 08:26:00,
2013-02-16 03:31:00,40.3,39.2,30.08,East,101,0.0,0.0,96,0.00,,FEW250,0.00,VWS V14.01,2013-02-16 08:31:00,
2013-02-16 03:36:00,40.1,39.0,30.08,East,101,0.0,0.0,96,0.00,,FEW250,0.00,VWS V14.01,2013-02-16 08:36:00,
2013-02-16 03:41:00,39.8,38.8,30.08,East,101,0.0,0.0,96,0.00,,FEW250,0.00,VWS V14.01,2013-02-16 08:41:00,
2013-02-16 03:46:00,39.6,38.6,30.08,East,101,0.0,0.0,96,0.00,,FEW250,0.00,VWS V14.01,2013-02-16 08:46:00,
2013-02-16 03:51:00,39.5,38.5,30.07,East,101,0.0,0.0,96,0.00,,FEW250,0.00,VWS V14.01,2013-02-16 08:51:00,
2013-02-16 03:56:00,39.2,38.2,30.07,East,101,0.0,0.0,96,0.00,,FEW250,0.00,VWS V14.01,2013-02-16 08:56:00,
2013-02-16 04:01:00,39.2,38.2,30.07,East,101,0.0,0.0,96,0.00,,FEW250,0.00,VWS V14.01,2013-02-16 09:01:00,
2013-02-16 04:06:00,39.1,38.1,30.06,East,101,0.0,0.0,96,0.00,,FEW250,0.00,VWS V14.01,2013-02-16 09:06:00,
2013-02-16 04:11:00,38.9,37.9,30.06,East,101,0.0,0.0,96,0.00,,FEW250,0.00,VWS V14.01,2013-02-16 09:11:00,
2013-02-16 04:16:00,38.9,37.9,30.06,East,101,0.0,0.0,96,0.00,,FEW250,0.00,VWS V14.01,2013-02-16 09:16:00,
2013-02-16 04:21:00,38.9,37.9,30.05,East,101,0.0,0.0,96,0.00,,FEW250,0.00,VWS V14.01,2013-02-16 09:21:00,
2013-02-16 04:26:00,38.8,37.8,30.05,East,101,0.0,0.0,96,0.00,,FEW250,0.00,VWS V14.01,2013-02-16 09:26:00,
2013-02-16 04:31:00,38.9,37.9,30.05,East,101,0.0,0.0,96,0.00,,FEW250,0.00,VWS V14.01,2013-02-16 09:31:00,
2013-02-16 04:36:00,38.9,37.9,30.05,East,101,0.0,0.0,96,0.00,,FEW250,0.00,VWS V14.01,2013-02-16 09:36:00,
2013-02-16 04:41:00,38.8,37.8,30.05,East,101,0.0,0.0,96,0.00,,FEW250,0.00,VWS V14.01,2013-02-16 09:41:00,
2013-02-16 04:46:00,39.2,38.2,30.05,East,101,0.0,0.0,96,0.00,,FEW250,0.00,VWS V14.01,2013-02-16 09:46:00,
2013-02-16 04:51:00,39.3,38.3,30.06,East,101,0.0,0.0,96,0.00,,FEW250,0.00,VWS V14.01,2013-02-16 09:51:00,
2013-02-16 04:56:00,39.6,38.8,30.06,East,101,0.0,0.0,97,0.00,,FEW250,0.00,VWS V14.01,2013-02-16 09:56:00,
2013-02-16 05:01:00,40.1,39.3,30.06,East,101,0.0,0.0,97,0.00,,FEW250,0.00,VWS V14.01,2013-02-16 10:01:00,
2013-02-16 05:06:00,40.3,39.5,30.05,East,101,0.0,0.0,97,0.00,,FEW250,0.00,VWS V14.01,2013-02-16 10:06:00,
2013-02-16 05:11:00,40.3,39.5,30.05,East,101,0.0,0.0,97,0.00,,FEW250,0.00,VWS V14.01,2013-02-16 10:11:00,
2013-02-16 05:16:00,40.3,39.5,30.05,East,101,0.0,0.0,97,0.00,,FEW250,0.00,VWS V14.01,2013-02-16 10:16:00,
2013-02-16 05:21:00,40.5,39.7,30.05,East,101,0.0,0.0,97,0.00,,FEW250,0.00,VWS V14.01,2013-02-16 10:21:00,
2013-02-16 05:26:00,40.5,39.7,30.05,East,101,0.0,0.0,97,0.00,,FEW250,0.00,VWS V14.01,2013-02-16 10:26:00,
2013-02-16 05:31:00,40.3,39.5,30.05,East,101,0.0,0.0,97,0.00,,FEW250,0.00,VWS V14.01,2013-02-16 10:31:00,
2013-02-16 05:36:00,40.6,39.8,30.05,East,101,0.0,0.0,97,0.00,,FEW250,0.00,VWS V14.01,2013-02-16 10:36:00,
2013-02-16 05:41:00,40.6,39.8,30.05,East,101,0.0,0.0,97,0.00,,FEW250,0.00,VWS V14.01,2013-02-16 10:41:00,
2013-02-16 05:46:00,40.8,40.0,30.05,East,101,0.0,0.0,97,0.00,,FEW250,0.00,VWS V14.01,2013-02-16 10:46:00,
2013-02-16 05:51:00,40.9,40.1,30.05,East,101,0.0,0.0,97,0.00,,FEW250,0.00,VWS V14.01,2013-02-16 10:51:00,
2013-02-16 05:56:00,41.1,40.3,30.05,East,101,0.0,0.0,97,0.00,,FEW250,0.00,VWS V14.01,2013-02-16 10:56:00,
2013-02-16 06:01:00,41.1,40.3,30.05,East,101,0.0,0.0,97,0.00,,FEW200,0.00,VWS V14.01,2013-02-16 11:01:00,
2013-02-16 06:06:00,41.1,40.3,30.05,East,101,0.0,0.0,97,0.00,,FEW200,0.00,VWS V14.01,2013-02-16 11:06:00,
2013-02-16 06:11:00,40.9,40.1,30.05,East,101,0.0,0.0,97,0.00,,FEW200,0.00,VWS V14.01,2013-02-16 11:11:00,
2013-02-16 06:16:00,40.9,40.1,30.05,East,101,0.0,0.0,97,0.00,,FEW200,0.00,VWS V14.01,2013-02-16 11:16:00,
2013-02-16 06:21:00,40.8,40.0,30.05,East,101,0.0,0.0,97,0.00,,FEW200,0.00,VWS V14.01,2013-02-16 11:21:00,
2013-02-16 06:26:00,41.1,40.3,30.05,East,101,0.0,0.0,97,0.00,,FEW200,0.00,VWS V14.01,2013-02-16 11:26:00,
2013-02-16 06:31:00,40.9,40.1,30.05,East,101,0.0,0.0,97,0.00,,FEW200,0.00,VWS V14.01,2013-02-16 11:31:00,
2013-02-16 06:36:00,40.6,39.8,30.05,East,101,0.0,0.0,97,0.00,,FEW200,0.00,VWS V14.01,2013-02-16 11:36:00,
2013-02-16 06:41:00,40.6,39.8,30.05,East,101,0.0,0.0,97,0.00,,FEW200,0.00,VWS V14.01,2013-02-16 11:41:00,
2013-02-16 06:46:00,40.6,39.8,30.05,East,101,0.0,0.0,97,0.00,,FEW200,0.00,VWS V14.01,2013-02-16 11:46:00,
2013-02-16 06:51:00,40.5,39.7,30.05,East,101,0.0,0.0,97,0.00,,FEW200,0.00,VWS V14.01,2013-02-16 11:51:00,
2013-02-16 06:56:00,40.3,39.5,30.05,East,101,0.0,0.0,97,0.00,,FEW200,0.00,VWS V14.01,2013-02-16 11:56:00,
2013-02-16 07:01:00,40.2,39.4,30.05,East,101,0.0,0.0,97,0.00,,SCT140,0.00,VWS V14.01,2013-02-16 12:01:00,
2013-02-16 07:06:00,40.1,39.3,30.05,East,101,0.0,0.0,97,0.00,,SCT140,0.00,VWS V14.01,2013-02-16 12:06:00,
2013-02-16 07:11:00,40.1,39.3,30.05,East,101,0.0,0.0,97,0.00,,SCT140,0.00,VWS V14.01,2013-02-16 12:11:00,
2013-02-16 07:16:00,39.9,39.1,30.05,East,101,0.0,0.0,97,0.00,,SCT140,0.00,VWS V14.01,2013-02-16 12:16:00,
2013-02-16 07:21:00,39.6,38.8,30.04,East,101,0.0,0.0,97,0.00,,SCT140,0.00,VWS V14.01,2013-02-16 12:21:00,
2013-02-16 07:26:00,39.3,38.3,30.04,East,101,0.0,0.0,96,0.00,,SCT140,0.00,VWS V14.01,2013-02-16 12:26:00,
2013-02-16 07:31:00,39.2,38.4,30.04,East,101,0.0,0.0,97,0.00,,SCT140,0.00,VWS V14.01,2013-02-16 12:31:00,
2013-02-16 07:36:00,39.2,38.4,30.04,East,101,0.0,0.0,97,0.00,,SCT140,0.00,VWS V14.01,2013-02-16 12:36:00,
2013-02-16 07:41:00,39.2,38.4,30.04,East,101,0.0,0.0,97,0.00,,SCT140,0.00,VWS V14.01,2013-02-16 12:41:00,
2013-02-16 07:46:00,39.3,38.5,30.04,East,101,0.0,0.0,97,0.00,,SCT140,0.00,VWS V14.01,2013-02-16 12:46:00,
2013-02-16 07:51:00,39.8,39.0,30.03,East,101,0.0,0.0,97,0.00,,SCT140,0.00,VWS V14.01,2013-02-16 12:51:00,
2013-02-16 07:56:00,40.5,40.0,30.03,East,101,0.0,0.0,98,0.00,,SCT140,0.00,VWS V14.01,2013-02-16 12:56:00,
2013-02-16 08:01:00,41.5,41.0,30.03,NNW,342,0.0,0.0,98,0.00,,SCT140,0.00,VWS V14.01,2013-02-16 13:01:00,
2013-02-16 08:06:00,41.5,41.0,30.03,NNW,342,0.0,0.0,98,0.00,,SCT140,0.00,VWS V14.01,2013-02-16 13:06:00,
2013-02-16 08:12:00,42.9,42.4,30.04,SSW,200,0.0,0.0,98,0.00,,BKN250,0.00,VWS V14.01,2013-02-16 13:12:00,
2013-02-16 08:17:00,43.3,42.8,30.04,SSW,200,0.0,0.0,98,0.00,,BKN250,0.00,VWS V14.01,2013-02-16 13:17:00,
2013-02-16 08:22:00,43.9,43.4,30.04,SSW,200,0.0,0.0,98,0.00,,BKN250,0.00,VWS V14.01,2013-02-16 13:22:00,
2013-02-16 08:27:00,44.2,43.7,30.04,SSW,200,0.0,0.0,98,0.00,,BKN250,0.00,VWS V14.01,2013-02-16 13:27:00,
2013-02-16 08:32:00,44.3,43.8,30.03,SSW,201,0.0,0.0,98,0.00,,BKN250,0.00,VWS V14.01,2013-02-16 13:32:00,
2013-02-16 08:37:00,44.6,43.8,30.03,SSW,201,0.0,0.0,97,0.00,,BKN250,0.00,VWS V14.01,2013-02-16 13:37:00,
2013-02-16 08:42:00,44.8,44.0,30.03,WSW,255,0.0,2.0,97,0.00,,BKN250,0.00,VWS V14.01,2013-02-16 13:42:00,
2013-02-16 08:47:00,44.9,44.1,30.04,NNW,342,0.0,0.0,97,0.00,,BKN250,0.00,VWS V14.01,2013-02-16 13:47:00,
2013-02-16 08:52:00,45.2,44.4,30.04,NW,311,0.0,0.0,97,0.00,,BKN250,0.00,VWS V14.01,2013-02-16 13:52:00,
2013-02-16 08:57:00,45.7,44.6,30.04,NW,314,0.0,0.0,96,0.00,,BKN250,0.00,VWS V14.01,2013-02-16 13:57:00,
2013-02-16 09:02:00,46.1,44.8,30.04,WNW,283,0.0,0.0,95,0.00,,SCT250,0.00,VWS V14.01,2013-02-16 14:02:00,
2013-02-16 09:07:00,46.4,44.5,30.04,SSW,212,0.0,0.0,93,0.00,,SCT250,0.00,VWS V14.01,2013-02-16 14:07:00,
2013-02-16 09:12:00,46.7,44.2,30.04,East,88,0.0,1.0,91,0.00,,SCT250,0.00,VWS V14.01,2013-02-16 14:12:00,
2013-02-16 09:17:00,46.8,43.7,30.04,NW,305,1.0,3.0,89,0.00,,SCT250,0.00,VWS V14.01,2013-02-16 14:17:00,
2013-02-16 09:22:00,47.4,44.0,30.04,NNW,335,0.0,0.0,88,0.00,,SCT250,0.00,VWS V14.01,2013-02-16 14:22:00,
2013-02-16 09:27:00,48.0,44.3,30.04,SSW,194,0.0,0.0,87,0.00,,SCT250,0.00,VWS V14.01,2013-02-16 14:27:00,
2013-02-16 09:33:00,48.6,43.7,30.03,NW,318,0.0,0.0,83,0.00,,SCT250,0.00,VWS V14.01,2013-02-16 14:33:00,
2013-02-16 09:38:00,49.1,43.8,30.03,ENE,70,0.0,0.0,82,0.00,,SCT250,0.00,VWS V14.01,2013-02-16 14:38:00,
2013-02-16 09:43:00,49.6,43.4,30.03,East,91,0.0,1.0,79,0.00,,SCT250,0.00,VWS V14.01,2013-02-16 14:43:00,
2013-02-16 09:48:00,49.9,42.7,30.03,ESE,120,0.0,2.0,76,0.00,,SCT250,0.00,VWS V14.01,2013-02-16 14:48:00,
2013-02-16 09:53:00,50.5,42.9,30.03,WNW,284,0.0,1.0,75,0.00,,SCT250,0.00,VWS V14.01,2013-02-16 14:53:00,
2013-02-16 09:58:00,50.8,42.1,30.03,South,187,0.0,0.0,72,0.00,,SCT250,0.00,VWS V14.01,2013-02-16 14:58:00,
2013-02-16 10:03:00,50.8,41.8,30.04,NNE,13,0.0,0.0,71,0.00,,SCT250,0.00,VWS V14.01,2013-02-16 15:03:00,
2013-02-16 10:08:00,50.8,41.0,30.04,NE,43,0.0,1.0,69,0.00,,SCT250,0.00,VWS V14.01,2013-02-16 15:08:00,
2013-02-16 10:13:00,51.0,41.2,30.04,NW,316,0.0,0.0,69,0.00,,SCT250,0.00,VWS V14.01,2013-02-16 15:13:00,
2013-02-16 10:19:00,51.6,41.4,30.03,WNW,297,0.0,0.0,68,0.00,,SCT250,0.00,VWS V14.01,2013-02-16 15:19:00,
2013-02-16 10:24:00,51.9,40.9,30.03,SSW,209,0.0,3.0,66,0.00,,SCT250,0.00,VWS V14.01,2013-02-16 15:24:00,
2013-02-16 10:29:00,52.2,40.8,30.03,North,8,0.0,0.0,65,0.00,,SCT250,0.00,VWS V14.01,2013-02-16 15:29:00,
2013-02-16 10:34:00,52.8,41.4,30.02,NNW,330,0.0,0.0,65,0.00,,SCT250,0.00,VWS V14.01,2013-02-16 15:34:00,
2013-02-16 10:39:00,53.5,41.6,30.02,NW,311,0.0,3.0,64,0.00,,SCT250,0.00,VWS V14.01,2013-02-16 15:39:00,
2013-02-16 10:44:00,53.9,41.2,30.02,NNE,30,0.0,1.0,62,0.00,,SCT250,0.00,VWS V14.01,2013-02-16 15:44:00,
2013-02-16 10:49:00,54.4,41.2,30.02,WSW,245,0.0,0.0,61,0.00,,SCT250,0.00,VWS V14.01,2013-02-16 15:49:00,
2013-02-16 10:54:00,54.4,41.2,30.02,SW,224,0.0,1.0,61,0.00,,SCT250,0.00,VWS V14.01,2013-02-16 15:54:00,
2013-02-16 11:00:00,53.8,40.3,30.02,SW,236,0.0,1.0,60,0.00,,SCT250,0.00,VWS V14.01,2013-02-16 16:00:00,
2013-02-16 11:05:00,53.9,40.8,30.02,NNW,334,0.0,1.0,61,0.00,,SCT250,0.00,VWS V14.01,2013-02-16 16:05:00,
2013-02-16 11:10:00,53.3,40.2,30.02,South,174,0.0,1.0,61,0.00,,SCT250,0.00,VWS V14.01,2013-02-16 16:10:00,
2013-02-16 11:15:00,53.8,41.5,30.02,ENE,58,0.0,0.0,63,0.00,,SCT250,0.00,VWS V14.01,2013-02-16 16:15:00,
2013-02-16 11:20:00,53.6,40.5,30.02,East,94,0.0,1.0,61,0.00,,SCT250,0.00,VWS V14.01,2013-02-16 16:20:00,
2013-02-16 11:25:00,53.3,40.2,30.02,SSW,198,0.0,3.0,61,0.00,,SCT250,0.00,VWS V14.01,2013-02-16 16:25:00,
2013-02-16 11:30:00,53.2,40.5,30.02,ESE,119,0.0,1.0,62,0.00,,SCT250,0.00,VWS V14.01,2013-02-16 16:30:00,
2013-02-16 11:35:00,53.1,40.0,30.03,NNW,337,1.0,4.0,61,0.00,,SCT250,0.00,VWS V14.01,2013-02-16 16:35:00,
2013-02-16 11:40:00,52.8,39.7,30.03,SE,134,0.0,1.0,61,0.00,,SCT250,0.00,VWS V14.01,2013-02-16 16:40:00,
2013-02-16 11:45:00,53.1,39.6,30.03,NE,39,2.0,5.0,60,0.00,,SCT250,0.00,VWS V14.01,2013-02-16 16:45:00,
2013-02-16 11:51:00,53.2,39.3,30.02,NNW,334,0.0,2.0,59,0.00,,SCT250,0.00,VWS V14.01,2013-02-16 16:51:00,
2013-02-16 11:56:00,53.1,38.7,30.02,NW,304,0.0,5.0,58,0.00,,SCT250,0.00,VWS V14.01,2013-02-16 16:56:00,
2013-02-16 12:01:00,52.8,38.9,30.02,SW,221,0.0,1.0,59,0.00,,BKN150,0.00,VWS V14.01,2013-02-16 17:01:00,
2013-02-16 12:06:00,52.8,38.9,30.02,WNW,297,0.0,3.0,59,0.00,,BKN150,0.00,VWS V14.01,2013-02-16 17:06:00,
2013-02-16 12:11:00,52.8,39.3,30.02,WNW,297,1.0,2.0,60,0.00,,BKN150,0.00,VWS V14.01,2013-02-16 17:11:00,
2013-02-16 12:16:00,52.8,38.9,30.02,SSW,193,0.0,2.0,59,0.00,,BKN150,0.00,VWS V14.01,2013-02-16 17:16:00,
2013-02-16 12:21:00,52.2,38.3,30.02,West,261,6.0,6.0,59,0.00,,BKN150,0.00,VWS V14.01,2013-02-16 17:21:00,
2013-02-16 12:26:00,51.6,38.2,30.02,WSW,257,3.0,4.0,60,0.00,,BKN150,0.00,VWS V14.01,2013-02-16 17:26:00,
2013-02-16 12:31:00,51.4,38.0,30.02,SW,236,1.0,3.0,60,0.00,,BKN150,0.00,VWS V14.01,2013-02-16 17:31:00,
2013-02-16 12:36:00,51.1,37.7,30.02,WNW,285,0.0,3.0,60,0.00,,BKN150,0.00,VWS V14.01,2013-02-16 17:36:00,
2013-02-16 12:41:00,50.7,37.3,30.02,NNW,343,3.0,6.0,60,0.00,,BKN150,0.00,VWS V14.01,2013-02-16 17:41:00,
2013-02-16 12:46:00,50.2,36.9,30.02,NNE,32,0.0,4.0,60,0.00,,BKN150,0.00,VWS V14.01,2013-02-16 17:46:00,
2013-02-16 12:51:00,49.8,36.9,30.02,ESE,110,0.0,0.0,61,0.00,,BKN150,0.00,VWS V14.01,2013-02-16 17:51:00,
2013-02-16 12:56:00,49.2,36.8,30.02,West,278,3.0,3.0,62,0.00,,BKN150,0.00,VWS V14.01,2013-02-16 17:56:00,
2013-02-16 13:01:00,48.9,36.1,30.02,ESE,108,1.0,2.0,61,0.00,,OVC035,0.00,VWS V14.01,2013-02-16 18:01:00,
2013-02-16 13:06:00,48.6,36.2,30.02,ESE,106,1.0,7.0,62,0.00,,OVC035,0.00,VWS V14.01,2013-02-16 18:06:00,
2013-02-16 13:11:00,48.3,35.9,30.02,NE,47,0.0,3.0,62,0.00,,OVC035,0.00,VWS V14.01,2013-02-16 18:11:00,
2013-02-16 13:17:00,47.9,35.9,30.02,NNE,25,0.0,2.0,63,0.00,,OVC035,0.00,VWS V14.01,2013-02-16 18:17:00,
2013-02-16 13:22:00,47.6,36.0,30.02,North,11,0.0,7.0,64,0.00,,OVC035,0.00,VWS V14.01,2013-02-16 18:22:00,
2013-02-16 13:27:00,47.1,36.7,30.02,SE,129,0.0,0.0,67,0.00,,OVC035,0.00,VWS V14.01,2013-02-16 18:27:00,
2013-02-16 13:32:00,46.5,36.9,30.02,SSW,203,1.0,9.0,69,0.00,,OVC035,0.00,VWS V14.01,2013-02-16 18:32:00,
2013-02-16 13:37:00,45.8,36.6,30.02,NW,311,0.0,2.0,70,0.00,,OVC035,0.00,VWS V14.01,2013-02-16 18:37:00,
2013-02-16 13:42:00,45.5,36.7,30.02,West,261,5.0,5.0,71,0.00,,OVC035,0.00,VWS V14.01,2013-02-16 18:42:00,
2013-02-16 13:47:00,44.9,36.8,30.03,NW,309,5.0,5.0,73,0.00,,OVC035,0.00,VWS V14.01,2013-02-16 18:47:00,
2013-02-16 13:52:00,44.2,36.8,30.03,SSE,165,5.0,5.0,75,0.00,,OVC035,0.00,VWS V14.01,2013-02-16 18:52:00,
2013-02-16 13:58:00,43.3,36.9,30.03,WNW,293,1.0,3.0,78,0.00,,OVC035,0.00,VWS V14.01,2013-02-16 18:58:00,
2013-02-16 14:03:00,42.5,36.8,30.05,South,175,4.0,5.0,80,0.00,,OVC026,0.00,VWS V14.01,2013-02-16 19:03:00,
2013-02-16 14:08:00,41.8,36.7,30.05,West,274,0.0,1.0,82,0.00,,OVC026,0.00,VWS V14.01,2013-02-16 19:08:00,
2013-02-16 14:13:00,41.5,37.0,30.05,WSW,250,0.0,3.0,84,0.00,,OVC026,0.00,VWS V14.01,2013-02-16 19:13:00,
2013-02-16 14:18:00,41.1,37.2,30.05,SSE,164,0.0,2.0,86,0.01,,OVC026,0.01,VWS V14.01,2013-02-16 19:18:00,
2013-02-16 14:23:00,40.8,37.2,30.05,ENE,59,0.0,2.0,87,0.01,,OVC026,0.01,VWS V14.01,2013-02-16 19:23:00,
2013-02-16 14:28:00,40.5,37.2,30.05,NW,316,0.0,0.0,88,0.01,,OVC026,0.01,VWS V14.01,2013-02-16 19:28:00,
2013-02-16 14:33:00,40.2,36.9,30.05,ESE,117,0.0,0.0,88,0.02,,OVC026,0.02,VWS V14.01,2013-02-16 19:33:00,
2013-02-16 14:39:00,39.9,36.9,30.05,WNW,293,0.0,0.0,89,0.02,,OVC026,0.02,VWS V14.01,2013-02-16 19:39:00,
2013-02-16 14:44:00,39.6,36.6,30.05,ENE,59,1.0,4.0,89,0.02,,OVC026,0.02,VWS V14.01,2013-02-16 19:44:00,
2013-02-16 14:49:00,39.5,36.8,30.06,SSW,203,0.0,0.0,90,0.02,,OVC026,0.02,VWS V14.01,2013-02-16 19:49:00,
2013-02-16 14:54:00,39.5,36.8,30.06,WSW,253,0.0,3.0,90,0.02,,OVC026,0.02,VWS V14.01,2013-02-16 19:54:00,
2013-02-16 14:59:00,39.5,36.8,30.06,NW,319,0.0,1.0,90,0.03,,OVC026,0.03,VWS V14.01,2013-02-16 19:59:00,
2013-02-16 15:04:00,39.3,36.6,30.06,SW,233,0.0,2.0,90,0.03,,-RA,0.03,VWS V14.01,2013-02-16 20:04:00,
2013-02-16 15:09:00,39.1,36.4,30.06,NE,44,1.0,3.0,90,0.03,,-RA,0.03,VWS V14.01,2013-02-16 20:09:00,
2013-02-16 15:14:00,39.1,36.4,30.06,NNW,330,0.0,0.0,90,0.04,,-RA,0.04,VWS V14.01,2013-02-16 20:14:00,
2013-02-16 15:19:00,38.9,36.2,30.06,SW,236,0.0,0.0,90,0.03,,-RA,0.04,VWS V14.01,2013-02-16 20:19:00,
2013-02-16 15:25:00,38.9,36.5,30.06,NNE,28,0.0,0.0,91,0.03,,-RA,0.04,VWS V14.01,2013-02-16 20:25:00,
2013-02-16 15:30:00,38.9,36.5,30.06,WNW,287,0.0,0.0,91,0.03,,-RA,0.04,VWS V14.01,2013-02-16 20:30:00,
2013-02-16 15:35:00,39.1,36.7,30.03,WNW,287,0.0,0.0,91,0.02,,-RA,0.04,VWS V14.01,2013-02-16 20:35:00,
2013-02-16 15:40:00,39.1,37.0,30.03,WNW,287,0.0,0.0,92,0.02,,-RA,0.04,VWS V14.01,2013-02-16 20:40:00,
2013-02-16 15:45:00,39.3,37.2,30.03,WNW,287,0.0,0.0,92,0.02,,-RA,0.04,VWS V14.01,2013-02-16 20:45:00,
2013-02-16 15:50:00,39.3,37.2,30.01,ENE,65,0.0,1.0,92,0.02,,-RA,0.04,VWS V14.01,2013-02-16 20:50:00,
2013-02-16 15:55:00,39.3,37.2,30.01,ENE,65,0.0,0.0,92,0.02,,-RA,0.04,VWS V14.01,2013-02-16 20:55:00,
2013-02-16 16:00:00,39.3,37.2,30.01,ENE,65,0.0,0.0,92,0.01,,-RA,0.04,VWS V14.01,2013-02-16 21:00:00,
2013-02-16 16:05:00,39.6,37.5,30.02,ENE,65,0.0,0.0,92,0.01,,OVC060,0.04,VWS V14.01,2013-02-16 21:05:00,
2013-02-16 16:10:00,39.6,37.5,30.02,ENE,65,0.0,0.0,92,0.01,,OVC060,0.04,VWS V14.01,2013-02-16 21:10:00,
2013-02-16 16:15:00,39.6,37.5,30.02,ENE,65,0.0,0.0,92,0.00,,OVC060,0.04,VWS V14.01,2013-02-16 21:15:00,
2013-02-16 16:21:00,39.8,37.7,30.02,ENE,65,0.0,0.0,92,0.00,,OVC060,0.04,VWS V14.01,2013-02-16 21:21:00,
2013-02-16 16:26:00,39.9,37.8,30.02,ENE,65,0.0,0.0,92,0.00,,OVC060,0.04,VWS V14.01,2013-02-16 21:26:00,
2013-02-16 16:31:00,40.6,38.7,30.02,ENE,65,0.0,0.0,93,0.00,,OVC060,0.04,VWS V14.01,2013-02-16 21:31:00,
2013-02-16 16:36:00,41.2,39.1,30.02,ENE,65,0.0,0.0,92,0.00,,OVC060,0.04,VWS V14.01,2013-02-16 21:36:00,
2013-02-16 16:41:00,41.9,39.8,30.02,ENE,69,0.0,0.0,92,0.00,,OVC060,0.04,VWS V14.01,2013-02-16 21:41:00,
2013-02-16 16:46:00,41.9,39.2,30.02,SSW,203,0.0,1.0,90,0.00,,OVC060,0.04,VWS V14.01,2013-02-16 21:46:00,
2013-02-16 16:51:00,41.9,38.6,30.02,WNW,283,0.0,0.0,88,0.00,,OVC060,0.04,VWS V14.01,2013-02-16 21:51:00,
2013-02-16 16:57:00,41.9,38.3,30.02,SW,236,0.0,2.0,87,0.00,,OVC060,0.04,VWS V14.01,2013-02-16 21:57:00,
2013-02-16 17:02:00,41.8,37.9,30.03,West,266,3.0,5.0,86,0.00,,BKN200,0.04,VWS V14.01,2013-02-16 22:02:00,
2013-02-16 17:07:00,41.6,37.4,30.03,WSW,245,0.0,0.0,85,0.00,,BKN200,0.04,VWS V14.01,2013-02-16 22:07:00,
2013-02-16 17:12:00,41.6,37.4,30.03,NW,307,3.0,6.0,85,0.00,,BKN200,0.04,VWS V14.01,2013-02-16 22:12:00,
2013-02-16 17:17:00,41.3,37.1,30.04,SW,226,0.0,3.0,85,0.00,,BKN200,0.04,VWS V14.01,2013-02-16 22:17:00,
2013-02-16 17:22:00,41.2,36.7,30.04,NW,304,0.0,0.0,84,0.00,,BKN200,0.04,VWS V14.01,2013-02-16 22:22:00,
2013-02-16 17:27:00,41.1,36.9,30.04,WNW,303,2.0,4.0,85,0.00,,BKN200,0.04,VWS V14.01,2013-02-16 22:27:00,
2013-02-16 17:32:00,41.1,36.9,30.04,SW,220,1.0,1.0,85,0.00,,BKN200,0.04,VWS V14.01,2013-02-16 22:32:00,
2013-02-16 17:37:00,40.9,36.8,30.04,SW,219,0.0,0.0,85,0.00,,BKN200,0.04,VWS V14.01,2013-02-16 22:37:00,
2013-02-16 17:42:00,40.8,36.7,30.04,WNW,289,0.0,1.0,85,0.00,,BKN200,0.04,VWS V14.01,2013-02-16 22:42:00,
2013-02-16 17:47:00,40.5,36.0,30.04,SW,236,3.0,3.0,84,0.00,,BKN200,0.04,VWS V14.01,2013-02-16 22:47:00,
2013-02-16 17:52:00,40.3,35.9,30.04,SW,232,0.0,0.0,84,0.00,,BKN200,0.04,VWS V14.01,2013-02-16 22:52:00,
2013-02-16 17:57:00,40.2,36.1,30.04,SW,232,0.0,1.0,85,0.00,,BKN200,0.04,VWS V14.01,2013-02-16 22:57:00,
2013-02-16 18:03:00,40.1,36.0,30.04,SW,232,0.0,0.0,85,0.00,,FEW016,0.04,VWS V14.01,2013-02-16 23:03:00,
2013-02-16 18:08:00,39.9,36.1,30.04,SW,232,0.0,0.0,86,0.00,,FEW016,0.04,VWS V14.01,2013-02-16 23:08:00,
2013-02-16 18:13:00,39.8,36.0,30.04,SW,232,0.0,0.0,86,0.00,,FEW016,0.04,VWS V14.01,2013-02-16 23:13:00,
2013-02-16 18:18:00,39.6,36.1,30.04,SW,232,0.0,0.0,87,0.00,,FEW016,0.04,VWS V14.01,2013-02-16 23:18:00,
2013-02-16 18:23:00,39.5,36.0,30.04,SW,232,0.0,0.0,87,0.00,,FEW016,0.04,VWS V14.01,2013-02-16 23:23:00,
2013-02-16 18:28:00,39.3,35.8,30.04,SW,232,0.0,0.0,87,0.00,,FEW016,0.04,VWS V14.01,2013-02-16 23:28:00,
2013-02-16 18:33:00,39.2,35.7,30.05,SW,232,0.0,0.0,87,0.00,,FEW016,0.04,VWS V14.01,2013-02-16 23:33:00,
2013-02-16 18:38:00,38.9,35.7,30.05,SW,232,0.0,0.0,88,0.00,,FEW016,0.04,VWS V14.01,2013-02-16 23:38:00,
2013-02-16 18:43:00,38.8,35.6,30.05,SW,232,0.0,0.0,88,0.00,,FEW016,0.04,VWS V14.01,2013-02-16 23:43:00,
2013-02-16 18:48:00,38.6,35.4,30.06,SW,232,0.0,0.0,88,0.00,,FEW016,0.04,VWS V14.01,2013-02-16 23:48:00,
2013-02-16 18:53:00,38.3,35.3,30.06,SW,232,0.0,0.0,89,0.00,,FEW016,0.04,VWS V14.01,2013-02-16 23:53:00,
2013-02-16 18:58:00,38.0,35.0,30.06,SW,232,0.0,0.0,89,0.00,,FEW016,0.04,VWS V14.01,2013-02-16 23:58:00,
2013-02-16 19:03:00,37.9,35.2,30.06,SW,232,0.0,0.0,90,0.00,,FEW070,0.04,VWS V14.01,2013-02-17 00:03:00,
2013-02-16 19:08:00,37.8,35.1,30.06,SW,232,0.0,0.0,90,0.00,,FEW070,0.04,VWS V14.01,2013-02-17 00:08:00,
2013-02-16 19:13:00,37.6,34.9,30.06,SW,232,0.0,0.0,90,0.00,,FEW070,0.04,VWS V14.01,2013-02-17 00:13:00,
2013-02-16 19:18:00,37.3,34.6,30.06,SW,232,0.0,0.0,90,0.00,,FEW070,0.04,VWS V14.01,2013-02-17 00:18:00,
2013-02-16 19:24:00,37.2,34.8,30.06,SW,232,0.0,0.0,91,0.00,,FEW070,0.04,VWS V14.01,2013-02-17 00:24:00,
2013-02-16 19:29:00,37.0,34.6,30.06,SW,232,0.0,0.0,91,0.00,,FEW070,0.04,VWS V14.01,2013-02-17 00:29:00,
2013-02-16 19:34:00,36.8,34.4,30.06,SW,232,0.0,0.0,91,0.00,,FEW070,0.04,VWS V14.01,2013-02-17 00:34:00,
2013-02-16 19:39:00,36.6,34.2,30.06,SW,232,0.0,0.0,91,0.00,,FEW070,0.04,VWS V14.01,2013-02-17 00:39:00,
2013-02-16 19:44:00,36.8,34.7,30.06,SW,232,0.0,0.0,92,0.00,,FEW070,0.04,VWS V14.01,2013-02-17 00:44:00,
2013-02-16 19:49:00,37.0,35.2,30.07,SW,232,0.0,0.0,93,0.00,,FEW070,0.04,VWS V14.01,2013-02-17 00:49:00,
2013-02-16 19:54:00,37.2,35.4,30.07,SW,232,0.0,0.0,93,0.00,,FEW070,0.04,VWS V14.01,2013-02-17 00:54:00,
2013-02-16 19:59:00,37.5,35.7,30.07,South,181,0.0,0.0,93,0.00,,FEW070,0.04,VWS V14.01,2013-02-17 00:59:00,
2013-02-16 20:04:00,37.8,36.0,30.07,WSW,247,1.0,3.0,93,0.00,,FEW090,0.04,VWS V14.01,2013-02-17 01:04:00,
2013-02-16 20:09:00,38.0,36.2,30.07,SSE,167,0.0,2.0,93,0.00,,FEW090,0.04,VWS V14.01,2013-02-17 01:09:00,
2013-02-16 20:14:00,38.3,36.2,30.07,SW,218,0.0,1.0,92,0.00,,FEW090,0.04,VWS V14.01,2013-02-17 01:14:00,
2013-02-16 20:19:00,38.8,35.6,30.07,West,260,1.0,6.0,88,0.00,,FEW090,0.04,VWS V14.01,2013-02-17 01:19:00,
2013-02-16 20:24:00,38.9,34.5,30.07,East,93,0.0,1.0,84,0.00,,FEW090,0.04,VWS V14.01,2013-02-17 01:24:00,
2013-02-16 20:29:00,38.9,33.9,30.07,West,278,0.0,2.0,82,0.00,,FEW090,0.04,VWS V14.01,2013-02-17 01:29:00,
2013-02-16 20:34:00,39.2,32.9,30.10,ESE,123,3.0,4.0,78,0.00,,FEW090,0.04,VWS V14.01,2013-02-17 01:34:00,
2013-02-16 20:39:00,39.6,33.0,30.10,SW,233,0.0,6.0,77,0.00,,FEW090,0.04,VWS V14.01,2013-02-17 01:39:00,
2013-02-16 20:44:00,39.8,32.9,30.10,East,82,0.0,0.0,76,0.00,,FEW090,0.04,VWS V14.01,2013-02-17 01:44:00,
2013-02-16 20:49:00,39.8,32.9,30.11,ESE,118,0.0,0.0,76,0.00,,FEW090,0.04,VWS V14.01,2013-02-17 01:49:00,
2013-02-16 20:54:00,39.6,33.0,30.11,NW,312,0.0,0.0,77,0.00,,FEW090,0.04,VWS V14.01,2013-02-17 01:54:00,
2013-02-16 20:59:00,39.2,32.3,30.11,ENE,72,0.0,0.0,76,0.00,,FEW090,0.04,VWS V14.01,2013-02-17 01:59:00,
2013-02-16 21:04:00,38.9,31.7,30.13,East,101,0.0,0.0,75,0.00,,CLR,0.04,VWS V14.01,2013-02-17 02:04:00,
2013-02-16 21:09:00,38.6,30.7,30.13,SW,236,1.0,4.0,73,0.00,,CLR,0.04,VWS V14.01,2013-02-17 02:09:00,
2013-02-16 21:15:00,38.3,30.1,30.13,West,267,0.0,1.0,72,0.00,,CLR,0.04,VWS V14.01,2013-02-17 02:15:00,
2013-02-16 21:20:00,38.2,30.0,30.13,WSW,253,0.0,3.0,72,0.00,,CLR,0.04,VWS V14.01,2013-02-17 02:20:00,
2013-02-16 21:25:00,38.0,30.1,30.13,SW,224,0.0,2.0,73,0.00,,CLR,0.04,VWS V14.01,2013-02-17 02:25:00,
2013-02-16 21:30:00,37.9,29.7,30.13,SSW,212,1.0,4.0,72,0.00,,CLR,0.04,VWS V14.01,2013-02-17 02:30:00,
2013-02-16 21:35:00,37.8,29.3,30.15,East,88,0.0,3.0,71,0.00,,CLR,0.04,VWS V14.01,2013-02-17 02:35:00,
2013-02-16 21:40:00,37.8,29.3,30.15,ENE,63,0.0,2.0,71,0.00,,CLR,0.04,VWS V14.01,2013-02-17 02:40:00,
2013-02-16 21:45:00,37.6,28.7,30.15,WSW,242,0.0,4.0,70,0.00,,CLR,0.04,VWS V14.01,2013-02-17 02:45:00,
2013-02-16 21:50:00,37.6,28.7,30.15,SE,130,0.0,5.0,70,0.00,,CLR,0.04,VWS V14.01,2013-02-17 02:50:00,
2013-02-16 21:55:00,37.5,29.0,30.15,SW,233,0.0,0.0,71,0.00,,CLR,0.04,VWS V14.01,2013-02-17 02:55:00,
2013-02-16 22:00:00,37.5,29.3,30.15,SE,136,0.0,0.0,72,0.00,,CLR,0.04,VWS V14.01,2013-02-17 03:00:00,
2013-02-16 22:06:00,37.3,29.5,30.16,SW,226,0.0,3.0,73,0.00,,CLR,0.04,VWS V14.01,2013-02-17 03:06:00,
2013-02-16 22:11:00,37.2,29.4,30.16,WNW,288,0.0,0.0,73,0.00,,CLR,0.04,VWS V14.01,2013-02-17 03:11:00,
2013-02-16 22:16:00,37.0,29.2,30.16,NW,314,1.0,1.0,73,0.00,,CLR,0.04,VWS V14.01,2013-02-17 03:16:00,
2013-02-16 22:21:00,36.9,29.4,30.17,South,184,0.0,9.0,74,0.00,,CLR,0.04,VWS V14.01,2013-02-17 03:21:00,
2013-02-16 22:26:00,36.8,29.6,30.17,East,87,0.0,4.0,75,0.00,,CLR,0.04,VWS V14.01,2013-02-17 03:26:00,
2013-02-16 22:31:00,36.8,29.6,30.17,WNW,294,0.0,0.0,75,0.00,,CLR,0.04,VWS V14.01,2013-02-17 03:31:00,
2013-02-16 22:36:00,36.6,29.8,30.18,SW,227,0.0,3.0,76,0.00,,CLR,0.04,VWS V14.01,2013-02-17 03:36:00,
2013-02-16 22:41:00,36.5,30.0,30.18,SE,129,0.0,5.0,77,0.00,,CLR,0.04,VWS V14.01,2013-02-17 03:41:00,
2013-02-16 22:46:00,36.3,30.1,30.18,SSE,165,0.0,1.0,78,0.00,,CLR,0.04,VWS V14.01,2013-02-17 03:46:00,
2013-02-16 22:51:00,36.3,30.1,30.19,WSW,252,1.0,4.0,78,0.00,,CLR,0.04,VWS V14.01,2013-02-17 03:51:00,
2013-02-16 22:56:00,36.3,30.1,30.19,WSW,240,0.0,6.0,78,0.00,,CLR,0.04,VWS V14.01,2013-02-17 03:56:00,
2013-02-16 23:01:00,36.2,30.0,30.19,WSW,246,2.0,4.0,78,0.00,,FEW080,0.04,VWS V14.01,2013-02-17 04:01:00,
2013-02-16 23:06:00,36.2,30.0,30.19,WSW,257,0.0,1.0,78,0.00,,FEW080,0.04,VWS V14.01,2013-02-17 04:06:00,
2013-02-16 23:11:00,36.0,29.8,30.19,West,269,0.0,2.0,78,0.00,,FEW080,0.04,VWS V14.01,2013-02-17 04:11:00,
2013-02-16 23:16:00,36.0,30.1,30.19,WSW,238,4.0,6.0,79,0.00,,FEW080,0.04,VWS V14.01,2013-02-17 04:16:00,
2013-02-16 23:21:00,35.6,28.8,30.20,NW,317,2.0,3.0,76,0.00,,FEW080,0.04,VWS V14.01,2013-02-17 04:21:00,
2013-02-16 23:26:00,35.5,27.7,30.20,SSE,160,0.0,0.0,73,0.00,,FEW080,0.04,VWS V14.01,2013-02-17 04:26:00,
2013-02-16 23:31:00,35.6,27.5,30.19,East,95,0.0,0.0,72,0.00,,FEW080,0.04,VWS V14.01,2013-02-17 04:31:00,
2013-02-16 23:36:00,35.6,27.1,30.19,SW,221,0.0,0.0,71,0.00,,FEW080,0.04,VWS V14.01,2013-02-17 04:36:00,
2013-02-16 23:41:00,35.6,27.1,30.19,WNW,291,1.0,3.0,71,0.00,,FEW080,0.04,VWS V14.01,2013-02-17 04:41:00,
2013-02-16 23:47:00,35.5,27.4,30.20,WSW,250,0.0,0.0,72,0.00,,FEW080,0.04,VWS V14.01,2013-02-17 04:47:00,
2013-02-16 23:52:00,35.3,27.5,30.20,WSW,246,0.0,2.0,73,0.00,,FEW080,0.04,VWS V14.01,2013-02-17 04:52:00,
2013-02-16 23:57:00,35.2,27.8,30.20,ESE,122,0.0,1.0,74,0.00,,FEW080,0.04,VWS V14.01,2013-02-17 04:57:00,